sensor_id;sensor_type;location;lat;lon;timestamp;P1;durP1;ratioP1;P2;durP2;ratioP2
30818;SDS011;17546;42.674;23.284;2023-07-16T00:00:06;19.25;;;11.05;;
30818;SDS011;17546;42.674;23.284;2023-07-16T00:02:34;22.00;;;11.27;;
30818;SDS011;17546;42.674;23.284;2023-07-16T00:05:00;25.88;;;11.25;;
30818;SDS011;17546;42.674;23.284;2023-07-16T00:07:25;22.50;;;11.07;;
30818;SDS011;17546;42.674;23.284;2023-07-16T00:14:52;26.17;;;11.45;;
30818;SDS011;17546;42.674;23.284;2023-07-16T00:17:17;19.60;;;11.38;;
30818;SDS011;17546;42.674;23.284;2023-07-16T00:19:43;18.50;;;10.75;;
30818;SDS011;17546;42.674;23.284;2023-07-16T00:22:08;15.07;;;10.40;;
30818;SDS011;17546;42.674;23.284;2023-07-16T00:24:34;26.30;;;10.85;;
30818;SDS011;17546;42.674;23.284;2023-07-16T00:27:00;18.50;;;10.13;;
30818;SDS011;17546;42.674;23.284;2023-07-16T00:29:25;18.25;;;11.27;;
30818;SDS011;17546;42.674;23.284;2023-07-16T00:31:51;17.50;;;10.60;;
30818;SDS011;17546;42.674;23.284;2023-07-16T00:34:17;21.20;;;10.32;;
30818;SDS011;17546;42.674;23.284;2023-07-16T00:36:42;22.02;;;10.45;;
30818;SDS011;17546;42.674;23.284;2023-07-16T00:39:08;17.95;;;10.13;;
30818;SDS011;17546;42.674;23.284;2023-07-16T00:41:36;17.73;;;10.50;;
30818;SDS011;17546;42.674;23.284;2023-07-16T00:49:03;19.20;;;9.65;;
30818;SDS011;17546;42.674;23.284;2023-07-16T00:51:37;13.40;;;9.68;;
30818;SDS011;17546;42.674;23.284;2023-07-16T00:54:03;16.67;;;9.23;;
30818;SDS011;17546;42.674;23.284;2023-07-16T00:56:29;18.13;;;9.68;;
30818;SDS011;17546;42.674;23.284;2023-07-16T00:58:55;18.27;;;10.40;;
30818;SDS011;17546;42.674;23.284;2023-07-16T01:14:05;15.45;;;9.65;;
30818;SDS011;17546;42.674;23.284;2023-07-16T01:16:32;17.08;;;10.32;;
30818;SDS011;17546;42.674;23.284;2023-07-16T01:18:57;18.90;;;9.88;;
30818;SDS011;17546;42.674;23.284;2023-07-16T01:21:23;13.82;;;9.40;;
30818;SDS011;17546;42.674;23.284;2023-07-16T01:23:59;16.10;;;9.00;;
30818;SDS011;17546;42.674;23.284;2023-07-16T01:31:54;17.55;;;10.02;;
30818;SDS011;17546;42.674;23.284;2023-07-16T01:34:21;19.35;;;10.95;;
30818;SDS011;17546;42.674;23.284;2023-07-16T01:36:49;19.52;;;10.38;;
30818;SDS011;17546;42.674;23.284;2023-07-16T01:39:19;18.58;;;10.93;;
30818;SDS011;17546;42.674;23.284;2023-07-16T01:41:45;14.00;;;10.60;;
30818;SDS011;17546;42.674;23.284;2023-07-16T01:44:10;17.13;;;10.52;;
30818;SDS011;17546;42.674;23.284;2023-07-16T01:51:38;19.08;;;10.15;;
30818;SDS011;17546;42.674;23.284;2023-07-16T01:54:04;18.75;;;10.25;;
30818;SDS011;17546;42.674;23.284;2023-07-16T01:56:29;14.88;;;9.63;;
30818;SDS011;17546;42.674;23.284;2023-07-16T01:58:55;20.30;;;9.55;;
30818;SDS011;17546;42.674;23.284;2023-07-16T02:01:21;15.15;;;9.50;;
30818;SDS011;17546;42.674;23.284;2023-07-16T02:03:47;17.90;;;9.25;;
30818;SDS011;17546;42.674;23.284;2023-07-16T02:11:23;16.02;;;7.72;;
30818;SDS011;17546;42.674;23.284;2023-07-16T02:13:48;13.45;;;7.90;;
30818;SDS011;17546;42.674;23.284;2023-07-16T02:16:15;17.40;;;7.07;;
30818;SDS011;17546;42.674;23.284;2023-07-16T02:18:40;12.00;;;6.90;;
30818;SDS011;17546;42.674;23.284;2023-07-16T02:21:09;13.60;;;6.95;;
30818;SDS011;17546;42.674;23.284;2023-07-16T02:23:35;8.40;;;6.22;;
30818;SDS011;17546;42.674;23.284;2023-07-16T02:26:00;10.15;;;5.63;;
30818;SDS011;17546;42.674;23.284;2023-07-16T02:28:26;14.15;;;5.80;;
30818;SDS011;17546;42.674;23.284;2023-07-16T02:30:55;10.73;;;5.93;;
30818;SDS011;17546;42.674;23.284;2023-07-16T02:33:20;8.68;;;5.05;;
30818;SDS011;17546;42.674;23.284;2023-07-16T02:35:49;11.70;;;5.03;;
30818;SDS011;17546;42.674;23.284;2023-07-16T02:38:18;18.05;;;5.43;;
30818;SDS011;17546;42.674;23.284;2023-07-16T02:40:44;13.30;;;4.90;;
30818;SDS011;17546;42.674;23.284;2023-07-16T02:43:10;7.40;;;4.90;;
30818;SDS011;17546;42.674;23.284;2023-07-16T02:51:00;9.18;;;5.05;;
30818;SDS011;17546;42.674;23.284;2023-07-16T02:53:25;10.98;;;5.07;;
30818;SDS011;17546;42.674;23.284;2023-07-16T02:55:54;11.32;;;4.85;;
30818;SDS011;17546;42.674;23.284;2023-07-16T02:58:22;18.60;;;4.70;;
30818;SDS011;17546;42.674;23.284;2023-07-16T03:00:48;12.05;;;4.50;;
30818;SDS011;17546;42.674;23.284;2023-07-16T03:03:18;9.15;;;4.95;;
30818;SDS011;17546;42.674;23.284;2023-07-16T03:05:46;11.55;;;4.97;;
30818;SDS011;17546;42.674;23.284;2023-07-16T03:08:12;11.00;;;5.15;;
30818;SDS011;17546;42.674;23.284;2023-07-16T03:10:41;9.52;;;5.50;;
30818;SDS011;17546;42.674;23.284;2023-07-16T03:13:06;12.30;;;5.10;;
30818;SDS011;17546;42.674;23.284;2023-07-16T03:20:36;10.85;;;5.78;;
30818;SDS011;17546;42.674;23.284;2023-07-16T03:23:02;14.18;;;6.65;;
30818;SDS011;17546;42.674;23.284;2023-07-16T03:25:27;14.02;;;6.15;;
30818;SDS011;17546;42.674;23.284;2023-07-16T03:27:54;12.65;;;5.47;;
30818;SDS011;17546;42.674;23.284;2023-07-16T03:30:22;11.80;;;5.78;;
30818;SDS011;17546;42.674;23.284;2023-07-16T03:32:48;13.10;;;5.82;;
30818;SDS011;17546;42.674;23.284;2023-07-16T03:35:14;8.65;;;5.32;;
30818;SDS011;17546;42.674;23.284;2023-07-16T03:37:42;17.15;;;5.45;;
30818;SDS011;17546;42.674;23.284;2023-07-16T03:40:14;13.45;;;5.85;;
30818;SDS011;17546;42.674;23.284;2023-07-16T03:42:41;9.05;;;4.82;;
30818;SDS011;17546;42.674;23.284;2023-07-16T03:45:08;12.27;;;5.70;;
30818;SDS011;17546;42.674;23.284;2023-07-16T03:47:34;9.05;;;5.60;;
30818;SDS011;17546;42.674;23.284;2023-07-16T03:50:03;10.32;;;5.63;;
30818;SDS011;17546;42.674;23.284;2023-07-16T03:52:29;11.90;;;5.93;;
30818;SDS011;17546;42.674;23.284;2023-07-16T03:54:56;16.58;;;6.10;;
30818;SDS011;17546;42.674;23.284;2023-07-16T03:57:21;9.68;;;5.80;;
30818;SDS011;17546;42.674;23.284;2023-07-16T03:59:47;11.23;;;6.18;;
30818;SDS011;17546;42.674;23.284;2023-07-16T04:02:16;8.85;;;5.90;;
30818;SDS011;17546;42.674;23.284;2023-07-16T04:04:41;18.08;;;6.50;;
30818;SDS011;17546;42.674;23.284;2023-07-16T04:07:10;9.98;;;6.20;;
30818;SDS011;17546;42.674;23.284;2023-07-16T04:09:37;12.07;;;6.22;;
30818;SDS011;17546;42.674;23.284;2023-07-16T04:12:04;14.25;;;6.80;;
30818;SDS011;17546;42.674;23.284;2023-07-16T04:14:33;13.75;;;6.60;;
30818;SDS011;17546;42.674;23.284;2023-07-16T04:16:58;15.35;;;6.97;;
30818;SDS011;17546;42.674;23.284;2023-07-16T04:19:24;12.90;;;6.60;;
30818;SDS011;17546;42.674;23.284;2023-07-16T04:22:03;9.48;;;6.20;;
30818;SDS011;17546;42.674;23.284;2023-07-16T04:24:29;15.48;;;6.93;;
30818;SDS011;17546;42.674;23.284;2023-07-16T04:26:55;16.08;;;6.50;;
30818;SDS011;17546;42.674;23.284;2023-07-16T04:29:20;18.27;;;6.03;;
30818;SDS011;17546;42.674;23.284;2023-07-16T04:31:46;19.88;;;6.45;;
30818;SDS011;17546;42.674;23.284;2023-07-16T04:34:12;10.43;;;5.25;;
30818;SDS011;17546;42.674;23.284;2023-07-16T04:36:48;8.80;;;5.30;;
30818;SDS011;17546;42.674;23.284;2023-07-16T04:39:14;10.02;;;4.85;;
30818;SDS011;17546;42.674;23.284;2023-07-16T04:46:40;10.98;;;5.03;;
30818;SDS011;17546;42.674;23.284;2023-07-16T04:49:13;10.43;;;5.55;;
30818;SDS011;17546;42.674;23.284;2023-07-16T04:51:39;12.98;;;5.60;;
30818;SDS011;17546;42.674;23.284;2023-07-16T04:54:04;12.80;;;5.40;;
30818;SDS011;17546;42.674;23.284;2023-07-16T04:56:31;12.30;;;5.10;;
30818;SDS011;17546;42.674;23.284;2023-07-16T04:58:56;16.60;;;5.40;;
30818;SDS011;17546;42.674;23.284;2023-07-16T05:01:22;19.02;;;5.53;;
30818;SDS011;17546;42.674;23.284;2023-07-16T05:03:48;19.20;;;5.40;;
30818;SDS011;17546;42.674;23.284;2023-07-16T05:06:13;20.23;;;5.78;;
30818;SDS011;17546;42.674;23.284;2023-07-16T05:08:39;9.65;;;5.00;;
30818;SDS011;17546;42.674;23.284;2023-07-16T05:11:05;9.98;;;5.05;;
30818;SDS011;17546;42.674;23.284;2023-07-16T05:13:31;8.88;;;4.95;;
30818;SDS011;17546;42.674;23.284;2023-07-16T05:15:56;13.02;;;5.00;;
30818;SDS011;17546;42.674;23.284;2023-07-16T05:18:22;14.50;;;5.18;;
30818;SDS011;17546;42.674;23.284;2023-07-16T05:20:48;9.88;;;5.30;;
30818;SDS011;17546;42.674;23.284;2023-07-16T05:23:17;8.85;;;5.05;;
30818;SDS011;17546;42.674;23.284;2023-07-16T05:25:46;12.85;;;5.68;;
30818;SDS011;17546;42.674;23.284;2023-07-16T05:28:13;9.45;;;5.38;;
30818;SDS011;17546;42.674;23.284;2023-07-16T05:35:59;11.57;;;5.50;;
30818;SDS011;17546;42.674;23.284;2023-07-16T05:38:27;11.40;;;5.18;;
30818;SDS011;17546;42.674;23.284;2023-07-16T05:40:53;19.00;;;5.20;;
30818;SDS011;17546;42.674;23.284;2023-07-16T05:43:19;16.00;;;5.13;;
30818;SDS011;17546;42.674;23.284;2023-07-16T05:48:19;10.88;;;4.70;;
30818;SDS011;17546;42.674;23.284;2023-07-16T05:50:45;10.68;;;5.13;;
30818;SDS011;17546;42.674;23.284;2023-07-16T05:53:11;11.43;;;5.63;;
30818;SDS011;17546;42.674;23.284;2023-07-16T05:55:39;10.95;;;5.25;;
30818;SDS011;17546;42.674;23.284;2023-07-16T05:58:04;13.30;;;5.32;;
30818;SDS011;17546;42.674;23.284;2023-07-16T06:00:30;10.07;;;4.80;;
30818;SDS011;17546;42.674;23.284;2023-07-16T06:02:55;19.40;;;5.05;;
30818;SDS011;17546;42.674;23.284;2023-07-16T06:05:21;9.43;;;4.85;;
30818;SDS011;17546;42.674;23.284;2023-07-16T06:07:47;10.27;;;5.45;;
30818;SDS011;17546;42.674;23.284;2023-07-16T06:10:13;16.30;;;5.35;;
30818;SDS011;17546;42.674;23.284;2023-07-16T06:12:38;13.07;;;5.55;;
30818;SDS011;17546;42.674;23.284;2023-07-16T06:15:04;8.80;;;5.43;;
30818;SDS011;17546;42.674;23.284;2023-07-16T06:40:04;8.93;;;5.45;;
30818;SDS011;17546;42.674;23.284;2023-07-16T06:42:30;12.32;;;5.57;;
30818;SDS011;17546;42.674;23.284;2023-07-16T06:44:56;10.05;;;5.35;;
30818;SDS011;17546;42.674;23.284;2023-07-16T06:47:21;13.90;;;5.68;;
30818;SDS011;17546;42.674;23.284;2023-07-16T06:49:46;10.80;;;5.20;;
30818;SDS011;17546;42.674;23.284;2023-07-16T06:52:22;9.52;;;5.40;;
30818;SDS011;17546;42.674;23.284;2023-07-16T06:54:50;8.15;;;5.50;;
30818;SDS011;17546;42.674;23.284;2023-07-16T06:57:15;17.00;;;5.55;;
30818;SDS011;17546;42.674;23.284;2023-07-16T06:59:41;11.38;;;5.50;;
30818;SDS011;17546;42.674;23.284;2023-07-16T07:02:06;13.48;;;5.70;;
30818;SDS011;17546;42.674;23.284;2023-07-16T07:04:32;12.18;;;5.45;;
30818;SDS011;17546;42.674;23.284;2023-07-16T07:06:57;8.82;;;5.60;;
30818;SDS011;17546;42.674;23.284;2023-07-16T07:09:42;18.38;;;6.97;;
30818;SDS011;17546;42.674;23.284;2023-07-16T07:12:07;15.20;;;6.80;;
30818;SDS011;17546;42.674;23.284;2023-07-16T07:14:33;16.00;;;7.15;;
30818;SDS011;17546;42.674;23.284;2023-07-16T07:17:02;13.32;;;7.20;;
30818;SDS011;17546;42.674;23.284;2023-07-16T07:19:27;12.07;;;6.90;;
30818;SDS011;17546;42.674;23.284;2023-07-16T07:21:53;15.93;;;6.70;;
30818;SDS011;17546;42.674;23.284;2023-07-16T07:24:26;14.65;;;6.90;;
30818;SDS011;17546;42.674;23.284;2023-07-16T07:26:51;9.32;;;6.82;;
30818;SDS011;17546;42.674;23.284;2023-07-16T07:29:16;12.00;;;6.35;;
30818;SDS011;17546;42.674;23.284;2023-07-16T07:31:42;14.40;;;6.78;;
30818;SDS011;17546;42.674;23.284;2023-07-16T07:34:10;11.52;;;6.82;;
30818;SDS011;17546;42.674;23.284;2023-07-16T07:36:35;12.07;;;6.47;;
30818;SDS011;17546;42.674;23.284;2023-07-16T07:39:01;13.73;;;6.95;;
30818;SDS011;17546;42.674;23.284;2023-07-16T07:41:26;11.18;;;6.90;;
30818;SDS011;17546;42.674;23.284;2023-07-16T07:43:51;26.73;;;7.13;;
30818;SDS011;17546;42.674;23.284;2023-07-16T07:46:17;13.15;;;6.97;;
30818;SDS011;17546;42.674;23.284;2023-07-16T07:48:42;18.50;;;7.53;;
30818;SDS011;17546;42.674;23.284;2023-07-16T07:51:08;10.88;;;6.82;;
30818;SDS011;17546;42.674;23.284;2023-07-16T07:53:41;12.93;;;5.90;;
30818;SDS011;17546;42.674;23.284;2023-07-16T07:56:06;12.27;;;6.63;;
30818;SDS011;17546;42.674;23.284;2023-07-16T07:58:32;13.23;;;6.40;;
30818;SDS011;17546;42.674;23.284;2023-07-16T08:01:03;12.38;;;7.00;;
30818;SDS011;17546;42.674;23.284;2023-07-16T08:03:30;11.02;;;5.65;;
30818;SDS011;17546;42.674;23.284;2023-07-16T08:05:55;12.20;;;5.80;;
30818;SDS011;17546;42.674;23.284;2023-07-16T08:11:08;16.60;;;5.95;;
30818;SDS011;17546;42.674;23.284;2023-07-16T08:13:33;10.35;;;6.13;;
30818;SDS011;17546;42.674;23.284;2023-07-16T08:16:02;11.70;;;6.57;;
30818;SDS011;17546;42.674;23.284;2023-07-16T08:18:27;12.70;;;5.60;;
30818;SDS011;17546;42.674;23.284;2023-07-16T08:20:53;19.70;;;6.35;;
30818;SDS011;17546;42.674;23.284;2023-07-16T08:26:04;16.20;;;5.82;;
30818;SDS011;17546;42.674;23.284;2023-07-16T08:28:30;12.38;;;5.80;;
30818;SDS011;17546;42.674;23.284;2023-07-16T08:34:42;12.87;;;5.80;;
30818;SDS011;17546;42.674;23.284;2023-07-16T08:37:07;12.27;;;6.00;;
30818;SDS011;17546;42.674;23.284;2023-07-16T08:39:33;14.00;;;6.60;;
30818;SDS011;17546;42.674;23.284;2023-07-16T08:44:36;12.77;;;6.90;;
30818;SDS011;17546;42.674;23.284;2023-07-16T08:47:02;13.80;;;6.20;;
30818;SDS011;17546;42.674;23.284;2023-07-16T08:49:32;17.27;;;5.85;;
30818;SDS011;17546;42.674;23.284;2023-07-16T08:51:59;13.95;;;6.38;;
30818;SDS011;17546;42.674;23.284;2023-07-16T08:54:29;13.88;;;6.43;;
30818;SDS011;17546;42.674;23.284;2023-07-16T08:56:55;13.52;;;5.90;;
30818;SDS011;17546;42.674;23.284;2023-07-16T08:59:21;10.60;;;6.63;;
30818;SDS011;17546;42.674;23.284;2023-07-16T09:01:47;13.45;;;5.80;;
30818;SDS011;17546;42.674;23.284;2023-07-16T09:04:17;16.85;;;6.78;;
30818;SDS011;17546;42.674;23.284;2023-07-16T09:06:42;11.48;;;6.53;;
30818;SDS011;17546;42.674;23.284;2023-07-16T09:09:08;9.38;;;5.88;;
30818;SDS011;17546;42.674;23.284;2023-07-16T09:11:45;12.65;;;6.25;;
30818;SDS011;17546;42.674;23.284;2023-07-16T09:14:28;14.55;;;6.32;;
30818;SDS011;17546;42.674;23.284;2023-07-16T09:16:53;13.68;;;6.55;;
30818;SDS011;17546;42.674;23.284;2023-07-16T09:19:19;13.10;;;5.72;;
30818;SDS011;17546;42.674;23.284;2023-07-16T09:21:46;9.27;;;5.95;;
30818;SDS011;17546;42.674;23.284;2023-07-16T09:24:15;15.88;;;6.28;;
30818;SDS011;17546;42.674;23.284;2023-07-16T09:29:37;9.43;;;6.38;;
30818;SDS011;17546;42.674;23.284;2023-07-16T09:32:03;9.68;;;6.00;;
30818;SDS011;17546;42.674;23.284;2023-07-16T09:34:34;17.95;;;6.38;;
30818;SDS011;17546;42.674;23.284;2023-07-16T09:37:00;16.63;;;6.50;;
30818;SDS011;17546;42.674;23.284;2023-07-16T09:39:27;15.98;;;6.70;;
30818;SDS011;17546;42.674;23.284;2023-07-16T09:41:56;18.40;;;7.40;;
30818;SDS011;17546;42.674;23.284;2023-07-16T09:44:23;14.35;;;7.93;;
30818;SDS011;17546;42.674;23.284;2023-07-16T09:46:48;15.18;;;6.85;;
30818;SDS011;17546;42.674;23.284;2023-07-16T09:49:28;15.73;;;8.23;;
30818;SDS011;17546;42.674;23.284;2023-07-16T09:51:56;18.83;;;8.13;;
30818;SDS011;17546;42.674;23.284;2023-07-16T09:54:21;13.82;;;6.72;;
30818;SDS011;17546;42.674;23.284;2023-07-16T09:57:01;13.30;;;7.22;;
30818;SDS011;17546;42.674;23.284;2023-07-16T09:59:29;18.75;;;7.45;;
30818;SDS011;17546;42.674;23.284;2023-07-16T10:01:58;14.18;;;7.30;;
30818;SDS011;17546;42.674;23.284;2023-07-16T10:04:39;16.05;;;7.07;;
30818;SDS011;17546;42.674;23.284;2023-07-16T10:07:05;13.27;;;7.45;;
30818;SDS011;17546;42.674;23.284;2023-07-16T10:09:31;17.60;;;6.97;;
30818;SDS011;17546;42.674;23.284;2023-07-16T10:12:17;14.85;;;7.30;;
30818;SDS011;17546;42.674;23.284;2023-07-16T10:14:50;14.55;;;7.00;;
30818;SDS011;17546;42.674;23.284;2023-07-16T10:17:21;13.50;;;6.78;;
30818;SDS011;17546;42.674;23.284;2023-07-16T10:25:03;15.45;;;7.13;;
30818;SDS011;17546;42.674;23.284;2023-07-16T10:27:44;10.82;;;7.57;;
30818;SDS011;17546;42.674;23.284;2023-07-16T10:33:12;16.08;;;7.80;;
30818;SDS011;17546;42.674;23.284;2023-07-16T10:35:40;14.95;;;8.00;;
30818;SDS011;17546;42.674;23.284;2023-07-16T10:38:06;16.73;;;7.28;;
30818;SDS011;17546;42.674;23.284;2023-07-16T10:40:32;15.95;;;7.80;;
30818;SDS011;17546;42.674;23.284;2023-07-16T10:42:57;13.43;;;7.47;;
30818;SDS011;17546;42.674;23.284;2023-07-16T10:45:22;13.90;;;7.32;;
30818;SDS011;17546;42.674;23.284;2023-07-16T10:50:40;20.10;;;7.57;;
30818;SDS011;17546;42.674;23.284;2023-07-16T10:53:06;19.35;;;7.15;;
30818;SDS011;17546;42.674;23.284;2023-07-16T10:58:17;12.68;;;7.43;;
30818;SDS011;17546;42.674;23.284;2023-07-16T11:00:44;17.25;;;7.65;;
30818;SDS011;17546;42.674;23.284;2023-07-16T11:03:10;20.35;;;7.93;;
30818;SDS011;17546;42.674;23.284;2023-07-16T11:05:35;17.90;;;7.55;;
30818;SDS011;17546;42.674;23.284;2023-07-16T11:08:00;14.35;;;7.78;;
30818;SDS011;17546;42.674;23.284;2023-07-16T11:10:35;15.50;;;7.10;;
30818;SDS011;17546;42.674;23.284;2023-07-16T11:13:00;16.25;;;7.78;;
30818;SDS011;17546;42.674;23.284;2023-07-16T11:15:32;17.80;;;7.43;;
30818;SDS011;17546;42.674;23.284;2023-07-16T11:17:58;20.92;;;7.15;;
30818;SDS011;17546;42.674;23.284;2023-07-16T11:20:23;20.30;;;7.07;;
30818;SDS011;17546;42.674;23.284;2023-07-16T11:22:51;15.60;;;7.00;;
30818;SDS011;17546;42.674;23.284;2023-07-16T11:25:16;20.15;;;7.13;;
30818;SDS011;17546;42.674;23.284;2023-07-16T11:27:43;20.60;;;7.60;;
30818;SDS011;17546;42.674;23.284;2023-07-16T11:30:14;13.68;;;7.22;;
30818;SDS011;17546;42.674;23.284;2023-07-16T11:32:45;18.25;;;7.43;;
30818;SDS011;17546;42.674;23.284;2023-07-16T11:35:15;17.13;;;7.00;;
30818;SDS011;17546;42.674;23.284;2023-07-16T11:37:42;11.50;;;7.10;;
30818;SDS011;17546;42.674;23.284;2023-07-16T11:40:09;16.52;;;7.50;;
30818;SDS011;17546;42.674;23.284;2023-07-16T11:42:37;18.00;;;6.40;;
30818;SDS011;17546;42.674;23.284;2023-07-16T11:45:04;12.18;;;7.40;;
30818;SDS011;17546;42.674;23.284;2023-07-16T11:47:30;17.33;;;8.13;;
30818;SDS011;17546;42.674;23.284;2023-07-16T11:49:57;12.35;;;7.75;;
30818;SDS011;17546;42.674;23.284;2023-07-16T11:52:23;13.70;;;6.75;;
30818;SDS011;17546;42.674;23.284;2023-07-16T11:54:51;15.18;;;7.32;;
30818;SDS011;17546;42.674;23.284;2023-07-16T11:57:17;31.55;;;7.40;;
30818;SDS011;17546;42.674;23.284;2023-07-16T11:59:43;12.93;;;7.20;;
30818;SDS011;17546;42.674;23.284;2023-07-16T12:02:08;13.95;;;7.13;;
30818;SDS011;17546;42.674;23.284;2023-07-16T12:04:34;14.90;;;6.85;;
30818;SDS011;17546;42.674;23.284;2023-07-16T12:10:00;11.98;;;7.38;;
30818;SDS011;17546;42.674;23.284;2023-07-16T12:12:31;15.20;;;7.30;;
30818;SDS011;17546;42.674;23.284;2023-07-16T12:14:57;16.10;;;7.25;;
30818;SDS011;17546;42.674;23.284;2023-07-16T12:17:24;13.43;;;7.45;;
30818;SDS011;17546;42.674;23.284;2023-07-16T12:19:54;16.30;;;7.13;;
30818;SDS011;17546;42.674;23.284;2023-07-16T12:22:20;18.92;;;7.50;;
30818;SDS011;17546;42.674;23.284;2023-07-16T12:24:47;19.75;;;7.40;;
30818;SDS011;17546;42.674;23.284;2023-07-16T12:27:17;17.38;;;7.05;;
30818;SDS011;17546;42.674;23.284;2023-07-16T12:29:43;18.67;;;7.50;;
30818;SDS011;17546;42.674;23.284;2023-07-16T12:32:09;13.70;;;7.15;;
30818;SDS011;17546;42.674;23.284;2023-07-16T12:34:36;17.30;;;7.45;;
30818;SDS011;17546;42.674;23.284;2023-07-16T12:37:02;16.70;;;7.03;;
30818;SDS011;17546;42.674;23.284;2023-07-16T12:39:28;13.82;;;6.85;;
30818;SDS011;17546;42.674;23.284;2023-07-16T12:44:46;9.32;;;6.60;;
30818;SDS011;17546;42.674;23.284;2023-07-16T12:47:12;13.98;;;7.00;;
30818;SDS011;17546;42.674;23.284;2023-07-16T12:49:37;10.90;;;6.40;;
30818;SDS011;17546;42.674;23.284;2023-07-16T12:52:03;11.70;;;7.28;;
30818;SDS011;17546;42.674;23.284;2023-07-16T12:57:50;16.48;;;6.72;;
30818;SDS011;17546;42.674;23.284;2023-07-16T13:00:16;20.45;;;7.18;;
30818;SDS011;17546;42.674;23.284;2023-07-16T13:05:46;11.98;;;6.90;;
30818;SDS011;17546;42.674;23.284;2023-07-16T13:08:12;9.65;;;7.05;;
30818;SDS011;17546;42.674;23.284;2023-07-16T13:13:43;12.27;;;7.10;;
30818;SDS011;17546;42.674;23.284;2023-07-16T13:16:09;15.32;;;6.85;;
30818;SDS011;17546;42.674;23.284;2023-07-16T13:18:34;13.43;;;7.22;;
30818;SDS011;17546;42.674;23.284;2023-07-16T13:21:01;12.50;;;6.65;;
30818;SDS011;17546;42.674;23.284;2023-07-16T13:23:26;15.13;;;6.97;;
30818;SDS011;17546;42.674;23.284;2023-07-16T13:25:52;14.75;;;7.43;;
30818;SDS011;17546;42.674;23.284;2023-07-16T13:28:19;14.85;;;6.85;;
30818;SDS011;17546;42.674;23.284;2023-07-16T13:30:45;16.63;;;6.90;;
30818;SDS011;17546;42.674;23.284;2023-07-16T13:33:10;10.30;;;6.90;;
30818;SDS011;17546;42.674;23.284;2023-07-16T13:38:26;16.30;;;7.63;;
30818;SDS011;17546;42.674;23.284;2023-07-16T13:40:52;13.38;;;7.15;;
30818;SDS011;17546;42.674;23.284;2023-07-16T13:43:17;17.50;;;6.82;;
30818;SDS011;17546;42.674;23.284;2023-07-16T13:45:42;13.68;;;7.07;;
30818;SDS011;17546;42.674;23.284;2023-07-16T13:48:24;16.33;;;7.10;;
30818;SDS011;17546;42.674;23.284;2023-07-16T13:50:49;14.20;;;6.38;;
30818;SDS011;17546;42.674;23.284;2023-07-16T13:53:15;13.93;;;6.80;;
30818;SDS011;17546;42.674;23.284;2023-07-16T13:55:56;15.65;;;6.10;;
30818;SDS011;17546;42.674;23.284;2023-07-16T13:58:21;9.45;;;6.25;;
30818;SDS011;17546;42.674;23.284;2023-07-16T14:00:47;12.68;;;6.55;;
30818;SDS011;17546;42.674;23.284;2023-07-16T14:03:12;19.85;;;6.25;;
30818;SDS011;17546;42.674;23.284;2023-07-16T14:05:38;16.58;;;6.05;;
30818;SDS011;17546;42.674;23.284;2023-07-16T14:08:07;9.27;;;5.90;;
30818;SDS011;17546;42.674;23.284;2023-07-16T14:13:20;15.50;;;6.30;;
30818;SDS011;17546;42.674;23.284;2023-07-16T14:15:46;9.32;;;6.20;;
30818;SDS011;17546;42.674;23.284;2023-07-16T14:24:40;15.57;;;6.45;;
30818;SDS011;17546;42.674;23.284;2023-07-16T14:27:07;18.80;;;7.15;;
30818;SDS011;17546;42.674;23.284;2023-07-16T14:32:25;15.00;;;7.05;;
30818;SDS011;17546;42.674;23.284;2023-07-16T14:34:51;15.18;;;6.80;;
30818;SDS011;17546;42.674;23.284;2023-07-16T14:37:17;13.98;;;7.00;;
30818;SDS011;17546;42.674;23.284;2023-07-16T14:39:42;15.93;;;6.40;;
30818;SDS011;17546;42.674;23.284;2023-07-16T14:42:08;16.67;;;7.15;;
30818;SDS011;17546;42.674;23.284;2023-07-16T14:44:34;17.30;;;7.00;;
30818;SDS011;17546;42.674;23.284;2023-07-16T14:46:59;15.75;;;6.47;;
30818;SDS011;17546;42.674;23.284;2023-07-16T14:49:25;15.00;;;6.47;;
30818;SDS011;17546;42.674;23.284;2023-07-16T14:51:50;19.88;;;7.35;;
30818;SDS011;17546;42.674;23.284;2023-07-16T14:54:16;15.20;;;7.28;;
30818;SDS011;17546;42.674;23.284;2023-07-16T14:56:42;16.50;;;6.70;;
30818;SDS011;17546;42.674;23.284;2023-07-16T14:59:07;17.77;;;6.65;;
30818;SDS011;17546;42.674;23.284;2023-07-16T15:01:34;9.90;;;6.57;;
30818;SDS011;17546;42.674;23.284;2023-07-16T15:04:09;13.40;;;7.15;;
30818;SDS011;17546;42.674;23.284;2023-07-16T15:06:36;12.05;;;6.90;;
30818;SDS011;17546;42.674;23.284;2023-07-16T15:09:01;16.90;;;6.95;;
30818;SDS011;17546;42.674;23.284;2023-07-16T15:14:15;14.77;;;7.20;;
30818;SDS011;17546;42.674;23.284;2023-07-16T15:16:40;13.98;;;7.20;;
30818;SDS011;17546;42.674;23.284;2023-07-16T15:19:06;15.60;;;6.32;;
30818;SDS011;17546;42.674;23.284;2023-07-16T15:21:33;12.60;;;6.88;;
30818;SDS011;17546;42.674;23.284;2023-07-16T15:23:58;12.63;;;6.90;;
30818;SDS011;17546;42.674;23.284;2023-07-16T15:26:24;12.30;;;6.38;;
30818;SDS011;17546;42.674;23.284;2023-07-16T15:28:49;13.15;;;7.22;;
30818;SDS011;17546;42.674;23.284;2023-07-16T15:31:15;15.07;;;7.10;;
30818;SDS011;17546;42.674;23.284;2023-07-16T15:33:41;17.45;;;6.45;;
30818;SDS011;17546;42.674;23.284;2023-07-16T15:36:06;22.17;;;7.28;;
30818;SDS011;17546;42.674;23.284;2023-07-16T15:38:31;11.35;;;6.53;;
30818;SDS011;17546;42.674;23.284;2023-07-16T15:40:57;14.98;;;6.95;;
30818;SDS011;17546;42.674;23.284;2023-07-16T15:43:22;24.27;;;7.97;;
30818;SDS011;17546;42.674;23.284;2023-07-16T15:45:48;14.90;;;6.88;;
30818;SDS011;17546;42.674;23.284;2023-07-16T15:48:13;15.23;;;6.88;;
30818;SDS011;17546;42.674;23.284;2023-07-16T15:50:39;14.70;;;7.18;;
30818;SDS011;17546;42.674;23.284;2023-07-16T15:53:05;15.00;;;8.15;;
30818;SDS011;17546;42.674;23.284;2023-07-16T15:55:30;12.20;;;7.20;;
30818;SDS011;17546;42.674;23.284;2023-07-16T15:57:56;14.55;;;8.40;;
30818;SDS011;17546;42.674;23.284;2023-07-16T16:00:22;13.07;;;8.63;;
30818;SDS011;17546;42.674;23.284;2023-07-16T16:02:49;16.65;;;8.38;;
30818;SDS011;17546;42.674;23.284;2023-07-16T16:05:15;12.88;;;7.85;;
30818;SDS011;17546;42.674;23.284;2023-07-16T16:08:10;15.95;;;8.35;;
30818;SDS011;17546;42.674;23.284;2023-07-16T16:10:37;14.57;;;8.88;;
30818;SDS011;17546;42.674;23.284;2023-07-16T16:13:03;18.40;;;9.18;;
30818;SDS011;17546;42.674;23.284;2023-07-16T16:15:28;15.38;;;8.75;;
30818;SDS011;17546;42.674;23.284;2023-07-16T16:17:53;17.15;;;9.30;;
30818;SDS011;17546;42.674;23.284;2023-07-16T16:20:19;18.20;;;10.80;;
30818;SDS011;17546;42.674;23.284;2023-07-16T16:22:44;17.08;;;8.38;;
30818;SDS011;17546;42.674;23.284;2023-07-16T16:25:10;18.50;;;9.20;;
30818;SDS011;17546;42.674;23.284;2023-07-16T16:27:35;17.63;;;9.27;;
30818;SDS011;17546;42.674;23.284;2023-07-16T16:30:01;15.15;;;9.23;;
30818;SDS011;17546;42.674;23.284;2023-07-16T16:32:27;13.98;;;8.70;;
30818;SDS011;17546;42.674;23.284;2023-07-16T16:34:59;24.55;;;9.02;;
30818;SDS011;17546;42.674;23.284;2023-07-16T16:37:24;15.85;;;9.65;;
30818;SDS011;17546;42.674;23.284;2023-07-16T16:39:50;16.77;;;9.15;;
30818;SDS011;17546;42.674;23.284;2023-07-16T16:45:36;17.75;;;8.88;;
30818;SDS011;17546;42.674;23.284;2023-07-16T16:48:05;26.00;;;9.77;;